Aktualne dane pomiarowe

Uwaga, wersja testowa! Automatyczne pobieranie danych za pomocą narzędzi lub skryptów to umożliwiających jest zabronione.

Dane meteo z obszaru Polski uzyskane na podstawie depesz SYNOP pobieranych co godzinę z NWS. Najedź myszką na symbol przedstawiony w tabeli, aby uzyskać informacje co do jego znaczenia. Prosimy pamiętać, że to testowa wersja strony, która jeszcze nie jest ukończona. Stworzono również jest krótki FAQ dotyczący korzystania z tej podstrony Anomalie temperatury w chwili obecnej odniesione są do okresu referencyjnego 1951-2016. Okres ten będzie później zmieniony na 1981-2010. Kliknij ikonę aby pobrać plik CSV. Kliknij ikonę aby wygenerować mapę synoptyczną dla danego terminu.

Wybierz Datę:    

        

Katowice (12560)

Dane terminowe dla wybranej stacji. Kliknij datę, aby otrzymać dane z tego terminu dla wszystkich stacji.

TemperaturaZachmurzenieWiatrCiśnienieOpadyPogoda
 Data t td wb tx tn tg rh  Nt Nl Cl Cm Ch ws wd g1 g2 wx mslp ppp ch 24h 12h t ww ww w1 w2  
2019-06-30 23:00:00 23.2 12.5 16.6--- 5150.0wx-wx4wx--41014.2 982.0 -0.2---------
2019-06-30 22:00:00 22.6 12.5 16.4--- 5350.0wx-wx4wx--41014.3 982.0 0.0---------
2019-06-30 21:00:00 23.3 12.9 16.8--- 5230.0wx-wx3wx--31014.4 982.2 0.3---------
2019-06-30 20:00:00 25.1 12.0 17.1--- 4430.0wx-wx3wx---1014.2 982.2 0.3---------
2019-06-30 19:00:00 28.5 11.1 18.1--- 3430.0wx-wx3wx--31013.6 982.0 -0.1---------
2019-06-30 18:00:00 29.5 11.5 18.6 34.0 23.3- 3330.0wx-3wx--31013.4 981.9 -0.9- 0.012------
2019-06-30 17:00:00 32.6 10.0 19.1--- 2550.0wx-6wx--61013.1 981.9 -1.4---------
2019-06-30 16:00:00 33.4 10.1 19.4--- 2430.0wx-4wx--41013.2 982.1 -1.9---------
2019-06-30 15:00:00 33.7 9.0 19.0--- 2230.0wx-5wx--51013.9 982.8 -1.9---------
2019-06-30 14:00:00 33.6 8.3 18.7--- 2130.0wx-5wx--51014.4 983.3 -1.9---------
2019-06-30 13:00:00 33.1 8.5 18.6--- 2230.0wx-6wx--61015.2 984.0 -1.8---------
2019-06-30 12:00:00 32.5 9.9 19.0--- 2530.0wx-4wx--41016.0 984.7 -1.5- 0.06------
2019-06-30 11:00:00 30.7 10.6 18.7--- 2930.0wx-5wx--51016.7 985.2 -1.3---------
2019-06-30 10:00:00 29.6 10.2 18.1--- 3030.0wx-5wx--51017.4 985.8 -0.7---------
2019-06-30 09:00:00 28.3 10.5 17.7--- 3330.0wx-5wx--51018.0 986.2 -0.3---------
2019-06-30 08:00:00 26.9 11.0 17.4--- 3750.0wx-6wx--61018.4 986.5 0.2---------
2019-06-30 07:00:00 25.0 11.2 16.7--- 4230.0wx-4wx--41018.6 986.5 0.5---------
2019-06-30 06:00:00 23.3 11.7 16.3 26.0 13.2 11 4830.0wx-4wx--41018.8 986.5 0.4- 0.012----- 14.4
2019-06-30 05:00:00 20.6 13.1 15.8--- 6230.0wx-3wx--31018.9 986.3 0.3---------
2019-06-30 04:00:00 15.2 13.6 14.1--- 9030.0wx-2wx---1019.2 986.0 -0.5---------
2019-06-30 03:00:00 14.1 11.8 12.5--- 8630.0wx-0---01019.5 986.1 -0.7---------
2019-06-30 02:00:00 14.0 11.7 12.4--- 8630.0wx-1wx--11019.4 986.0 -0.9---------
2019-06-30 01:00:00 13.9 11.4 12.2--- 8530.0wx-2wx--21019.9 986.5 -0.3---------
2019-06-30 00:00:00 14.2 11.2 12.2--- 8230.0wx-1wx---1020.2 986.8 0.0---------
2019-06-29 23:00:00 14.9 11.5 12.6--- 8030.0wx-1wx---1020.2 986.9 0.1---------
2019-06-29 22:00:00 15.5 11.7 13.0--- 7830.0wx-wx1wx---1020.0 986.8 0.4---------
2019-06-29 21:00:00 15.8 11.4 12.9--- 7520.0wx-wx2wx---1020.0 986.8 0.5---------
2019-06-29 20:00:00 18.7 11.3 14.1--- 6230.0wx-wx1wx--11019.7 986.8 0.5---------
2019-06-29 19:00:00 23.9 9.1 15.3--- 3930.0wx-wx1wx--11018.7 986.4 0.1---------
2019-06-29 18:00:00 25.9 8.4 15.9 27.5 18.2- 3350.0wx-wx2wx-821018.3 986.3 -0.4- 0.012------
2019-06-29 17:00:00 27.1 8.0 16.2--- 3050.0wx-wx3wx---1018.2 986.3 -0.9---------
2019-06-29 16:00:00 27.2 8.1 16.3--- 3030.0wx-wx3wx---1018.2 986.3 -1.3---------
2019-06-29 15:00:00 27.1 8.5 16.4--- 3130.0wxwxwxwx3wx-831018.6 986.7 -1.5---------
2019-06-29 14:00:00 26.7 9.1 16.5--- 3330.0wxwxwxwx4wx---1019.2 987.2 -1.4---------
2019-06-29 13:00:00 26.0 7.6 15.6--- 3130.0wxwxwxwx3wx---1019.7 987.6 -1.5---------
2019-06-29 12:00:00 25.3 7.4 15.2--- 3230.0wxwxwxwx3wx--31020.4 988.2 -1.1- 0.06------
2019-06-29 11:00:00 24.2 7.8 14.9--- 3530.0wxwxwxwx2wx--21020.9 988.6 -1.0---------
2019-06-29 10:00:00 23.3 8.2 14.7--- 3830.0wxwxwxwx3wx--31021.5 989.1 -0.7---------
2019-06-29 09:00:00 22.2 7.6 14.0--- 3930.0wxwxwxwx3wx--31021.8 989.3 -0.8---------
2019-06-29 08:00:00 21.1 7.3 13.4--- 4130.0wx-wx2wx--21022.3 989.6 -0.4---------
2019-06-29 07:00:00 19.4 5.8 12.0--- 4130.0wx-wx4wx--41022.7 989.8 -0.1---------
2019-06-29 06:00:00 18.4 6.9 11.9 21.2 13.6 12 4730.0wx-wx3wx--31023.1 990.1 0.5- 0.012----- 4.4
2019-06-29 05:00:00 16.7 7.9 11.6--- 5630.0wx-wx2wx--21023.2 990.0 0.6---------
2019-06-29 04:00:00 13.9 10.5 11.7--- 8030.0wxwxwxwxwx1wx--11023.4 989.9 0.5---------
2019-06-29 03:00:00 14.8 9.4 11.4--- 7030.0wxwxwxwx1wx--11023.0 989.6 0.5---------
2019-06-29 02:00:00 17.2 7.8 11.8--- 5430.0wxwxwx1wx--11022.5 989.4 0.6---------
2019-06-29 01:00:00 17.3 10.2 12.9--- 6330.0wxwxwx1wx--11022.5 989.4 0.7---------
2019-06-29 00:00:00 15.8 11.4 12.9--- 7530.0wxwxwx1wx--11022.4 989.1 0.5- 0.06------
1.1 ms

 

Print Friendly, PDF & Email